sensor_id;sensor_type;location;lat;lon;timestamp;pressure;altitude;pressure_sealevel;temperature;humidity
72409;BME280;60402;48.082;11.628;2024-01-25T00:00:25;96320.56;;;7.49;100.00
72409;BME280;60402;48.082;11.628;2024-01-25T00:03:11;96348.66;;;7.63;100.00
72409;BME280;60402;48.082;11.628;2024-01-25T00:05:56;96347.03;;;7.62;100.00
72409;BME280;60402;48.082;11.628;2024-01-25T00:08:42;96341.41;;;7.62;100.00
72409;BME280;60402;48.082;11.628;2024-01-25T00:11:28;96329.38;;;7.47;100.00
72409;BME280;60402;48.082;11.628;2024-01-25T00:14:16;96336.63;;;7.59;100.00
72409;BME280;60402;48.082;11.628;2024-01-25T00:17:02;96307.31;;;7.35;100.00
72409;BME280;60402;48.082;11.628;2024-01-25T00:19:48;96314.13;;;7.41;100.00
72409;BME280;60402;48.082;11.628;2024-01-25T00:22:33;96329.00;;;7.34;100.00
72409;BME280;60402;48.082;11.628;2024-01-25T00:25:19;96339.84;;;7.54;100.00
72409;BME280;60402;48.082;11.628;2024-01-25T00:28:05;96322.56;;;7.48;100.00
72409;BME280;60402;48.082;11.628;2024-01-25T00:30:50;96355.06;;;7.71;100.00
72409;BME280;60402;48.082;11.628;2024-01-25T00:33:36;96332.19;;;7.47;100.00
72409;BME280;60402;48.082;11.628;2024-01-25T00:36:22;96365.53;;;7.59;100.00
72409;BME280;60402;48.082;11.628;2024-01-25T00:39:08;96320.59;;;7.34;100.00
72409;BME280;60402;48.082;11.628;2024-01-25T00:41:58;96337.44;;;7.45;100.00
72409;BME280;60402;48.082;11.628;2024-01-25T00:44:47;96356.28;;;7.52;100.00
72409;BME280;60402;48.082;11.628;2024-01-25T00:47:33;96335.81;;;7.48;100.00
72409;BME280;60402;48.082;11.628;2024-01-25T00:50:19;96340.25;;;7.45;100.00
72409;BME280;60402;48.082;11.628;2024-01-25T00:53:06;96331.00;;;7.55;100.00
72409;BME280;60402;48.082;11.628;2024-01-25T00:55:52;96353.06;;;7.60;100.00
72409;BME280;60402;48.082;11.628;2024-01-25T00:58:38;96335.81;;;7.58;100.00
72409;BME280;60402;48.082;11.628;2024-01-25T01:01:24;96332.63;;;7.49;100.00
72409;BME280;60402;48.082;11.628;2024-01-25T01:04:10;96341.00;;;7.71;100.00
72409;BME280;60402;48.082;11.628;2024-01-25T01:06:56;96353.88;;;7.64;100.00
72409;BME280;60402;48.082;11.628;2024-01-25T01:09:42;96347.06;;;7.48;100.00
72409;BME280;60402;48.082;11.628;2024-01-25T01:12:27;96354.69;;;7.54;100.00
72409;BME280;60402;48.082;11.628;2024-01-25T01:15:13;96364.34;;;7.53;100.00
72409;BME280;60402;48.082;11.628;2024-01-25T01:17:59;96373.97;;;7.66;100.00
72409;BME280;60402;48.082;11.628;2024-01-25T01:20:44;96363.94;;;7.58;100.00
72409;BME280;60402;48.082;11.628;2024-01-25T01:23:30;96386.41;;;7.65;100.00
72409;BME280;60402;48.082;11.628;2024-01-25T01:26:15;96380.81;;;7.55;100.00
72409;BME280;60402;48.082;11.628;2024-01-25T01:29:01;96386.81;;;7.71;100.00
72409;BME280;60402;48.082;11.628;2024-01-25T01:31:47;96365.53;;;7.63;100.00
72409;BME280;60402;48.082;11.628;2024-01-25T01:34:32;96386.41;;;7.76;100.00
72409;BME280;60402;48.082;11.628;2024-01-25T01:37:18;96378.81;;;7.62;100.00
72409;BME280;60402;48.082;11.628;2024-01-25T01:40:04;96351.47;;;7.52;100.00
72409;BME280;60402;48.082;11.628;2024-01-25T01:42:50;96340.25;;;7.49;100.00
72409;BME280;60402;48.082;11.628;2024-01-25T01:45:36;96361.94;;;7.59;100.00
72409;BME280;60402;48.082;11.628;2024-01-25T01:48:21;96366.72;;;7.62;100.00
72409;BME280;60402;48.082;11.628;2024-01-25T01:51:08;96357.09;;;7.59;100.00
72409;BME280;60402;48.082;11.628;2024-01-25T01:53:54;96355.47;;;7.62;100.00
72409;BME280;60402;48.082;11.628;2024-01-25T01:56:41;96367.16;;;7.60;100.00
72409;BME280;60402;48.082;11.628;2024-01-25T01:59:26;96343.03;;;7.56;100.00
72409;BME280;60402;48.082;11.628;2024-01-25T02:02:14;96360.72;;;7.56;100.00
72409;BME280;60402;48.082;11.628;2024-01-25T02:05:00;96351.47;;;7.63;100.00
72409;BME280;60402;48.082;11.628;2024-01-25T02:07:45;96364.34;;;7.64;100.00
72409;BME280;60402;48.082;11.628;2024-01-25T02:10:31;96361.94;;;7.55;100.00
72409;BME280;60402;48.082;11.628;2024-01-25T02:13:16;96344.25;;;7.58;100.00
72409;BME280;60402;48.082;11.628;2024-01-25T02:16:03;96349.06;;;7.51;100.00
72409;BME280;60402;48.082;11.628;2024-01-25T02:18:49;96345.06;;;7.52;100.00
72409;BME280;60402;48.082;11.628;2024-01-25T02:21:34;96349.06;;;7.51;100.00
72409;BME280;60402;48.082;11.628;2024-01-25T02:24:20;96340.25;;;7.45;100.00
72409;BME280;60402;48.082;11.628;2024-01-25T02:27:06;96333.41;;;7.42;100.00
72409;BME280;60402;48.082;11.628;2024-01-25T02:29:52;96357.09;;;7.52;100.00
72409;BME280;60402;48.082;11.628;2024-01-25T02:32:38;96339.44;;;7.41;100.00
72409;BME280;60402;48.082;11.628;2024-01-25T02:35:23;96353.88;;;7.57;100.00
72409;BME280;60402;48.082;11.628;2024-01-25T02:38:09;96356.28;;;7.52;100.00
72409;BME280;60402;48.082;11.628;2024-01-25T02:40:54;96299.28;;;7.30;100.00
72409;BME280;60402;48.082;11.628;2024-01-25T02:43:40;96335.81;;;7.48;100.00
72409;BME280;60402;48.082;11.628;2024-01-25T02:46:26;96343.44;;;7.54;100.00
72409;BME280;60402;48.082;11.628;2024-01-25T02:49:11;96308.94;;;7.39;100.00
72409;BME280;60402;48.082;11.628;2024-01-25T02:51:57;96348.25;;;7.61;100.00
72409;BME280;60402;48.082;11.628;2024-01-25T02:54:43;96334.22;;;7.50;100.00
72409;BME280;60402;48.082;11.628;2024-01-25T02:57:28;96320.94;;;7.47;100.00
72409;BME280;60402;48.082;11.628;2024-01-25T03:00:16;96320.97;;;7.43;100.00
72409;BME280;60402;48.082;11.628;2024-01-25T03:03:02;96328.59;;;7.50;100.00
72409;BME280;60402;48.082;11.628;2024-01-25T03:05:48;96337.41;;;7.52;100.00
72409;BME280;60402;48.082;11.628;2024-01-25T03:08:33;96330.56;;;7.57;100.00
72409;BME280;60402;48.082;11.628;2024-01-25T03:11:19;96309.69;;;7.47;100.00
72409;BME280;60402;48.082;11.628;2024-01-25T03:14:05;96334.22;;;7.54;100.00
72409;BME280;60402;48.082;11.628;2024-01-25T03:16:50;96323.38;;;7.49;100.00
72409;BME280;60402;48.082;11.628;2024-01-25T03:19:36;96306.50;;;7.49;100.00
72409;BME280;60402;48.082;11.628;2024-01-25T03:22:22;96324.94;;;7.57;100.00
72409;BME280;60402;48.082;11.628;2024-01-25T03:25:08;96323.34;;;7.52;100.00
72409;BME280;60402;48.082;11.628;2024-01-25T03:27:55;96309.72;;;7.40;100.00
72409;BME280;60402;48.082;11.628;2024-01-25T03:30:41;96290.88;;;7.26;100.00
72409;BME280;60402;48.082;11.628;2024-01-25T03:33:26;96302.88;;;7.34;100.00
72409;BME280;60402;48.082;11.628;2024-01-25T03:36:14;96308.09;;;7.53;100.00
72409;BME280;60402;48.082;11.628;2024-01-25T03:39:03;96310.91;;;7.53;100.00
72409;BME280;60402;48.082;11.628;2024-01-25T03:41:48;96281.22;;;7.34;100.00
72409;BME280;60402;48.082;11.628;2024-01-25T03:44:34;96289.63;;;7.41;100.00
72409;BME280;60402;48.082;11.628;2024-01-25T03:47:19;96304.09;;;7.43;100.00
72409;BME280;60402;48.082;11.628;2024-01-25T03:50:05;96313.72;;;7.46;100.00
72409;BME280;60402;48.082;11.628;2024-01-25T03:52:51;96321.38;;;7.46;100.00
72409;BME280;60402;48.082;11.628;2024-01-25T03:55:37;96304.91;;;7.44;100.00
72409;BME280;60402;48.082;11.628;2024-01-25T03:58:23;96303.28;;;7.43;100.00
72409;BME280;60402;48.082;11.628;2024-01-25T04:01:08;96308.13;;;7.28;100.00
72409;BME280;60402;48.082;11.628;2024-01-25T04:03:54;96305.72;;;7.30;100.00
72409;BME280;60402;48.082;11.628;2024-01-25T04:06:44;96317.75;;;7.31;100.00
72409;BME280;60402;48.082;11.628;2024-01-25T04:09:31;96335.03;;;7.33;100.00
72409;BME280;60402;48.082;11.628;2024-01-25T04:12:16;96335.44;;;7.31;100.00
72409;BME280;60402;48.082;11.628;2024-01-25T04:15:02;96295.69;;;7.11;100.00
72409;BME280;60402;48.082;11.628;2024-01-25T04:17:48;96326.19;;;7.31;100.00
72409;BME280;60402;48.082;11.628;2024-01-25T04:20:34;96310.13;;;7.10;100.00
72409;BME280;60402;48.082;11.628;2024-01-25T04:23:20;96334.63;;;7.24;100.00
72409;BME280;60402;48.082;11.628;2024-01-25T04:26:05;96349.88;;;7.33;100.00
72409;BME280;60402;48.082;11.628;2024-01-25T04:28:51;96340.25;;;7.09;100.00
72409;BME280;60402;48.082;11.628;2024-01-25T04:31:42;96351.91;;;7.22;100.00
72409;BME280;60402;48.082;11.628;2024-01-25T04:34:29;96357.13;;;7.24;100.00
72409;BME280;60402;48.082;11.628;2024-01-25T04:37:15;96358.75;;;7.25;100.00
72409;BME280;60402;48.082;11.628;2024-01-25T04:40:01;96370.78;;;7.32;100.00
72409;BME280;60402;48.082;11.628;2024-01-25T04:42:46;96365.97;;;7.26;100.00
72409;BME280;60402;48.082;11.628;2024-01-25T04:45:32;96366.78;;;7.30;100.00
72409;BME280;60402;48.082;11.628;2024-01-25T04:48:18;96377.59;;;7.28;100.00
72409;BME280;60402;48.082;11.628;2024-01-25T04:51:04;96350.28;;;7.14;100.00
72409;BME280;60402;48.082;11.628;2024-01-25T04:53:49;96378.81;;;7.37;100.00
72409;BME280;60402;48.082;11.628;2024-01-25T04:56:35;96380.44;;;7.35;100.00
72409;BME280;60402;48.082;11.628;2024-01-25T04:59:20;96364.34;;;7.17;100.00
72409;BME280;60402;48.082;11.628;2024-01-25T05:02:06;96380.81;;;7.23;100.00
72409;BME280;60402;48.082;11.628;2024-01-25T05:04:52;96385.25;;;7.20;100.00
72409;BME280;60402;48.082;11.628;2024-01-25T05:07:37;96370.34;;;7.05;100.00
72409;BME280;60402;48.082;11.628;2024-01-25T05:10:23;96403.72;;;7.21;100.00
72409;BME280;60402;48.082;11.628;2024-01-25T05:13:12;96406.50;;;7.17;100.00
72409;BME280;60402;48.082;11.628;2024-01-25T05:15:57;96395.66;;;7.20;100.00
72409;BME280;60402;48.082;11.628;2024-01-25T05:18:43;96409.31;;;7.28;100.00
72409;BME280;60402;48.082;11.628;2024-01-25T05:21:28;96407.72;;;7.24;100.00
72409;BME280;60402;48.082;11.628;2024-01-25T05:24:14;96375.97;;;7.09;100.00
72409;BME280;60402;48.082;11.628;2024-01-25T05:27:00;96426.59;;;7.27;100.00
72409;BME280;60402;48.082;11.628;2024-01-25T05:29:45;96365.16;;;6.97;100.00
72409;BME280;60402;48.082;11.628;2024-01-25T05:32:31;96414.13;;;7.24;100.00
72409;BME280;60402;48.082;11.628;2024-01-25T05:35:17;96422.97;;;7.19;100.00
72409;BME280;60402;48.082;11.628;2024-01-25T05:38:03;96420.16;;;7.23;100.00
72409;BME280;60402;48.082;11.628;2024-01-25T05:40:49;96397.66;;;7.08;100.00
72409;BME280;60402;48.082;11.628;2024-01-25T05:43:35;96417.34;;;7.12;100.00
72409;BME280;60402;48.082;11.628;2024-01-25T05:46:20;96413.34;;;7.16;100.00
72409;BME280;60402;48.082;11.628;2024-01-25T05:49:06;96424.56;;;7.24;100.00
72409;BME280;60402;48.082;11.628;2024-01-25T05:51:51;96417.38;;;7.26;100.00
72409;BME280;60402;48.082;11.628;2024-01-25T05:54:37;96417.75;;;7.17;100.00
72409;BME280;60402;48.082;11.628;2024-01-25T05:57:23;96412.53;;;7.20;100.00
72409;BME280;60402;48.082;11.628;2024-01-25T06:00:09;96440.25;;;7.21;100.00
72409;BME280;60402;48.082;11.628;2024-01-25T06:02:57;96450.25;;;7.15;100.00
72409;BME280;60402;48.082;11.628;2024-01-25T06:05:43;96426.16;;;7.00;100.00
72409;BME280;60402;48.082;11.628;2024-01-25T06:08:28;96441.00;;;7.04;100.00
72409;BME280;60402;48.082;11.628;2024-01-25T06:11:14;96451.88;;;7.02;100.00
72409;BME280;60402;48.082;11.628;2024-01-25T06:14:01;96443.78;;;6.89;100.00
72409;BME280;60402;48.082;11.628;2024-01-25T06:16:46;96444.22;;;6.99;100.00
72409;BME280;60402;48.082;11.628;2024-01-25T06:19:32;96434.97;;;6.87;100.00
72409;BME280;60402;48.082;11.628;2024-01-25T06:22:19;96445.41;;;6.90;100.00
72409;BME280;60402;48.082;11.628;2024-01-25T06:25:05;96492.84;;;7.17;100.00
72409;BME280;60402;48.082;11.628;2024-01-25T06:27:51;96487.59;;;7.05;100.00
72409;BME280;60402;48.082;11.628;2024-01-25T06:30:36;96462.66;;;6.96;100.00
72409;BME280;60402;48.082;11.628;2024-01-25T06:33:22;96504.47;;;7.08;100.00
72409;BME280;60402;48.082;11.628;2024-01-25T06:36:08;96469.06;;;6.79;100.00
72409;BME280;60402;48.082;11.628;2024-01-25T06:38:54;96477.53;;;6.97;100.00
72409;BME280;60402;48.082;11.628;2024-01-25T06:41:39;96499.19;;;6.89;100.00
72409;BME280;60402;48.082;11.628;2024-01-25T06:44:25;96496.72;;;6.77;100.00
72409;BME280;60402;48.082;11.628;2024-01-25T06:47:11;96502.38;;;6.84;100.00
72409;BME280;60402;48.082;11.628;2024-01-25T06:49:56;96488.28;;;6.77;100.00
72409;BME280;60402;48.082;11.628;2024-01-25T06:52:42;96508.81;;;6.88;100.00
72409;BME280;60402;48.082;11.628;2024-01-25T06:55:28;96511.25;;;6.93;100.00
72409;BME280;60402;48.082;11.628;2024-01-25T06:58:13;96499.09;;;6.71;100.00
72409;BME280;60402;48.082;11.628;2024-01-25T07:01:00;96530.47;;;6.91;100.00
72409;BME280;60402;48.082;11.628;2024-01-25T07:03:45;96510.75;;;6.70;100.00
72409;BME280;60402;48.082;11.628;2024-01-25T07:06:31;96519.16;;;6.66;100.00
72409;BME280;60402;48.082;11.628;2024-01-25T07:09:17;96530.00;;;6.71;100.00
72409;BME280;60402;48.082;11.628;2024-01-25T07:12:03;96543.66;;;6.76;100.00
72409;BME280;60402;48.082;11.628;2024-01-25T07:14:55;96553.25;;;6.64;100.00
72409;BME280;60402;48.082;11.628;2024-01-25T07:17:40;96539.59;;;6.59;100.00
72409;BME280;60402;48.082;11.628;2024-01-25T07:20:26;96543.56;;;6.58;100.00
72409;BME280;60402;48.082;11.628;2024-01-25T07:23:12;96541.59;;;6.62;100.00
72409;BME280;60402;48.082;11.628;2024-01-25T07:25:57;96528.25;;;6.42;100.00
72409;BME280;60402;48.082;11.628;2024-01-25T07:28:43;96550.72;;;6.49;100.00
72409;BME280;60402;48.082;11.628;2024-01-25T07:31:29;96552.81;;;6.62;100.00
72409;BME280;60402;48.082;11.628;2024-01-25T07:34:14;96539.59;;;6.59;100.00
72409;BME280;60402;48.082;11.628;2024-01-25T07:37:00;96550.81;;;6.59;100.00
72409;BME280;60402;48.082;11.628;2024-01-25T07:39:46;96558.16;;;6.78;100.00
72409;BME280;60402;48.082;11.628;2024-01-25T07:42:31;96560.56;;;6.80;100.00
72409;BME280;60402;48.082;11.628;2024-01-25T07:45:17;96565.41;;;6.90;100.00
72409;BME280;60402;48.082;11.628;2024-01-25T07:48:03;96574.25;;;6.96;100.00
72409;BME280;60402;48.082;11.628;2024-01-25T07:50:49;96581.13;;;7.02;100.00
72409;BME280;60402;48.082;11.628;2024-01-25T07:53:34;96597.19;;;7.05;100.00
72409;BME280;60402;48.082;11.628;2024-01-25T07:56:20;96593.19;;;7.09;100.00
72409;BME280;60402;48.082;11.628;2024-01-25T07:59:10;96585.09;;;6.94;100.00
72409;BME280;60402;48.082;11.628;2024-01-25T08:01:55;96598.84;;;7.13;100.00
72409;BME280;60402;48.082;11.628;2024-01-25T08:04:41;96592.81;;;7.14;100.00
72409;BME280;60402;48.082;11.628;2024-01-25T08:07:27;96599.31;;;7.29;100.00
72409;BME280;60402;48.082;11.628;2024-01-25T08:10:12;96592.50;;;7.37;100.00
72409;BME280;60402;48.082;11.628;2024-01-25T08:12:58;96576.41;;;7.20;100.00
72409;BME280;60402;48.082;11.628;2024-01-25T08:15:44;96606.97;;;7.36;100.00
72409;BME280;60402;48.082;11.628;2024-01-25T08:18:30;96600.09;;;7.23;100.00
72409;BME280;60402;48.082;11.628;2024-01-25T08:21:16;96625.88;;;7.39;100.00
72409;BME280;60402;48.082;11.628;2024-01-25T08:24:02;96598.50;;;7.29;100.00
72409;BME280;60402;48.082;11.628;2024-01-25T08:26:48;96590.56;;;7.49;100.00
72409;BME280;60402;48.082;11.628;2024-01-25T08:29:34;96584.53;;;7.57;100.00
72409;BME280;60402;48.082;11.628;2024-01-25T08:32:20;96620.41;;;8.07;98.72
72409;BME280;60402;48.082;11.628;2024-01-25T08:35:05;96616.38;;;8.01;98.74
72409;BME280;60402;48.082;11.628;2024-01-25T08:37:51;96593.44;;;8.02;98.36
72409;BME280;60402;48.082;11.628;2024-01-25T08:40:37;96604.13;;;9.36;92.25
72409;BME280;60402;48.082;11.628;2024-01-25T08:43:23;96567.09;;;12.16;79.65
72409;BME280;60402;48.082;11.628;2024-01-25T08:46:08;96576.06;;;14.40;65.78
72409;BME280;60402;48.082;11.628;2024-01-25T08:48:54;96589.50;;;14.72;62.25
72409;BME280;60402;48.082;11.628;2024-01-25T08:51:40;96572.91;;;15.74;57.42
72409;BME280;60402;48.082;11.628;2024-01-25T08:54:26;96601.53;;;18.02;51.17
72409;BME280;60402;48.082;11.628;2024-01-25T08:57:11;96582.97;;;18.69;49.24
72409;BME280;60402;48.082;11.628;2024-01-25T08:59:57;96603.59;;;19.04;47.75
72409;BME280;60402;48.082;11.628;2024-01-25T09:02:44;96622.78;;;19.90;43.91
72409;BME280;60402;48.082;11.628;2024-01-25T09:05:30;96622.03;;;19.62;43.45
72409;BME280;60402;48.082;11.628;2024-01-25T09:08:19;96633.56;;;20.32;41.07
72409;BME280;60402;48.082;11.628;2024-01-25T09:11:05;96626.81;;;20.62;41.37
72409;BME280;60402;48.082;11.628;2024-01-25T09:13:50;96627.50;;;21.24;40.86
72409;BME280;60402;48.082;11.628;2024-01-25T09:16:36;96630.00;;;20.64;40.78
72409;BME280;60402;48.082;11.628;2024-01-25T09:19:23;96607.41;;;21.48;39.17
72409;BME280;60402;48.082;11.628;2024-01-25T09:22:09;96626.47;;;21.36;39.30
72409;BME280;60402;48.082;11.628;2024-01-25T09:24:55;96619.38;;;17.84;43.45
72409;BME280;60402;48.082;11.628;2024-01-25T09:27:41;96640.97;;;16.40;46.66
72409;BME280;60402;48.082;11.628;2024-01-25T09:30:26;96645.16;;;14.73;51.73
72409;BME280;60402;48.082;11.628;2024-01-25T09:33:12;96648.38;;;13.43;57.48
72409;BME280;60402;48.082;11.628;2024-01-25T09:35:58;96655.59;;;14.96;53.06
72409;BME280;60402;48.082;11.628;2024-01-25T09:38:43;96644.88;;;13.95;55.98
72409;BME280;60402;48.082;11.628;2024-01-25T09:41:29;96657.13;;;13.92;55.98
72409;BME280;60402;48.082;11.628;2024-01-25T09:44:15;96668.06;;;12.84;57.41
72409;BME280;60402;48.082;11.628;2024-01-25T09:47:03;96662.06;;;12.54;59.61
72409;BME280;60402;48.082;11.628;2024-01-25T09:49:51;96649.31;;;12.12;61.78
72409;BME280;60402;48.082;11.628;2024-01-25T09:52:38;96654.13;;;11.16;65.09
72409;BME280;60402;48.082;11.628;2024-01-25T09:55:27;96661.09;;;11.05;65.85
72409;BME280;60402;48.082;11.628;2024-01-25T09:58:13;96655.50;;;10.53;67.23
72409;BME280;60402;48.082;11.628;2024-01-25T10:00:59;96650.59;;;10.60;69.16
72409;BME280;60402;48.082;11.628;2024-01-25T10:03:45;96681.84;;;10.39;72.86
72409;BME280;60402;48.082;11.628;2024-01-25T10:06:31;96667.25;;;10.44;72.75
72409;BME280;60402;48.082;11.628;2024-01-25T10:09:17;96644.72;;;10.37;72.94
72409;BME280;60402;48.082;11.628;2024-01-25T10:12:02;96648.31;;;10.44;73.29
72409;BME280;60402;48.082;11.628;2024-01-25T10:14:48;96662.34;;;10.55;74.15
72409;BME280;60402;48.082;11.628;2024-01-25T10:17:34;96650.16;;;10.65;73.81
72409;BME280;60402;48.082;11.628;2024-01-25T10:20:20;96632.53;;;10.47;75.02
72409;BME280;60402;48.082;11.628;2024-01-25T10:23:09;96639.94;;;10.23;76.76
72409;BME280;60402;48.082;11.628;2024-01-25T10:25:58;96628.94;;;10.39;74.80
72409;BME280;60402;48.082;11.628;2024-01-25T10:28:55;96643.06;;;10.43;75.49
72409;BME280;60402;48.082;11.628;2024-01-25T10:31:41;96632.16;;;10.45;74.13
72409;BME280;60402;48.082;11.628;2024-01-25T10:34:28;96626.00;;;10.54;72.28
72409;BME280;60402;48.082;11.628;2024-01-25T10:37:22;96618.84;;;10.42;72.08
72409;BME280;60402;48.082;11.628;2024-01-25T10:40:09;96633.94;;;10.17;73.91
72409;BME280;60402;48.082;11.628;2024-01-25T10:42:55;96609.84;;;10.02;76.92
72409;BME280;60402;48.082;11.628;2024-01-25T10:45:41;96598.09;;;10.07;76.76
72409;BME280;60402;48.082;11.628;2024-01-25T10:48:28;96621.50;;;10.04;77.88
72409;BME280;60402;48.082;11.628;2024-01-25T10:51:14;96588.31;;;10.19;76.65
72409;BME280;60402;48.082;11.628;2024-01-25T10:54:04;96601.22;;;10.20;76.37
72409;BME280;60402;48.082;11.628;2024-01-25T10:56:52;96621.06;;;10.09;77.25
72409;BME280;60402;48.082;11.628;2024-01-25T10:59:38;96589.41;;;9.80;77.00
72409;BME280;60402;48.082;11.628;2024-01-25T11:02:24;96616.41;;;9.81;77.98
72409;BME280;60402;48.082;11.628;2024-01-25T11:05:14;96587.03;;;9.71;78.43
72409;BME280;60402;48.082;11.628;2024-01-25T11:08:00;96571.38;;;9.60;78.09
72409;BME280;60402;48.082;11.628;2024-01-25T11:10:50;96589.44;;;9.73;78.53
72409;BME280;60402;48.082;11.628;2024-01-25T11:13:41;96580.50;;;9.85;79.65
72409;BME280;60402;48.082;11.628;2024-01-25T11:16:31;96576.84;;;9.88;78.79
72409;BME280;60402;48.082;11.628;2024-01-25T11:19:20;96535.44;;;9.71;79.75
72409;BME280;60402;48.082;11.628;2024-01-25T11:22:06;96548.63;;;9.88;79.24
72409;BME280;60402;48.082;11.628;2024-01-25T11:24:52;96547.50;;;9.75;79.20
72409;BME280;60402;48.082;11.628;2024-01-25T11:27:39;96549.91;;;9.73;79.35
72409;BME280;60402;48.082;11.628;2024-01-25T11:30:29;96545.47;;;9.79;78.15
72409;BME280;60402;48.082;11.628;2024-01-25T11:33:15;96549.59;;;9.60;77.71
72409;BME280;60402;48.082;11.628;2024-01-25T11:36:01;96535.53;;;9.50;77.69
72409;BME280;60402;48.082;11.628;2024-01-25T11:38:46;96559.97;;;9.78;78.41
72409;BME280;60402;48.082;11.628;2024-01-25T11:41:32;96560.75;;;9.78;78.86
72409;BME280;60402;48.082;11.628;2024-01-25T11:44:18;96554.38;;;9.70;78.53
72409;BME280;60402;48.082;11.628;2024-01-25T11:47:04;96534.72;;;9.56;76.97
72409;BME280;60402;48.082;11.628;2024-01-25T11:49:50;96530.75;;;9.43;76.82
72409;BME280;60402;48.082;11.628;2024-01-25T11:52:36;96543.28;;;9.31;77.00
72409;BME280;60402;48.082;11.628;2024-01-25T11:55:21;96537.56;;;9.45;78.47
72409;BME280;60402;48.082;11.628;2024-01-25T11:58:07;96535.16;;;9.47;77.63
72409;BME280;60402;48.082;11.628;2024-01-25T12:00:53;96526.34;;;9.42;79.32
72409;BME280;60402;48.082;11.628;2024-01-25T12:03:40;96522.28;;;9.43;75.87
72409;BME280;60402;48.082;11.628;2024-01-25T12:06:26;96534.31;;;9.54;73.52
72409;BME280;60402;48.082;11.628;2024-01-25T12:09:11;96530.31;;;9.48;73.20
72409;BME280;60402;48.082;11.628;2024-01-25T12:12:00;96535.09;;;9.58;73.32
72409;BME280;60402;48.082;11.628;2024-01-25T12:14:45;96527.13;;;9.46;72.44
72409;BME280;60402;48.082;11.628;2024-01-25T12:17:32;96507.13;;;9.19;73.79
72409;BME280;60402;48.082;11.628;2024-01-25T12:20:18;96513.41;;;9.44;72.28
72409;BME280;60402;48.082;11.628;2024-01-25T12:23:05;96501.69;;;9.50;72.66
72409;BME280;60402;48.082;11.628;2024-01-25T12:25:52;96494.00;;;9.54;73.06
72409;BME280;60402;48.082;11.628;2024-01-25T12:28:37;96507.91;;;9.82;73.55
72409;BME280;60402;48.082;11.628;2024-01-25T12:31:23;96491.88;;;9.68;74.03
72409;BME280;60402;48.082;11.628;2024-01-25T12:34:15;96503.72;;;10.01;71.45
72409;BME280;60402;48.082;11.628;2024-01-25T12:37:01;96514.19;;;10.08;73.34
72409;BME280;60402;48.082;11.628;2024-01-25T12:39:46;96508.34;;;10.29;73.62
72409;BME280;60402;48.082;11.628;2024-01-25T12:42:32;96481.69;;;10.34;71.06
72409;BME280;60402;48.082;11.628;2024-01-25T12:45:18;96511.81;;;10.47;71.07
72409;BME280;60402;48.082;11.628;2024-01-25T12:48:04;96507.97;;;10.31;70.82
72409;BME280;60402;48.082;11.628;2024-01-25T12:50:52;96490.66;;;10.21;67.68
72409;BME280;60402;48.082;11.628;2024-01-25T12:53:38;96461.00;;;9.99;67.10
72409;BME280;60402;48.082;11.628;2024-01-25T12:56:23;96489.13;;;10.10;65.30
72409;BME280;60402;48.082;11.628;2024-01-25T12:59:09;96465.91;;;9.88;67.20
72409;BME280;60402;48.082;11.628;2024-01-25T13:01:55;96475.47;;;10.05;67.59
72409;BME280;60402;48.082;11.628;2024-01-25T13:04:41;96477.63;;;9.86;68.01
72409;BME280;60402;48.082;11.628;2024-01-25T13:07:26;96475.91;;;10.03;67.95
72409;BME280;60402;48.082;11.628;2024-01-25T13:10:12;96484.75;;;10.05;69.01
72409;BME280;60402;48.082;11.628;2024-01-25T13:12:57;96463.53;;;9.86;69.38
72409;BME280;60402;48.082;11.628;2024-01-25T13:15:43;96495.59;;;10.10;70.68
72409;BME280;60402;48.082;11.628;2024-01-25T13:18:29;96459.19;;;9.75;72.19
72409;BME280;60402;48.082;11.628;2024-01-25T13:21:14;96483.97;;;10.01;72.46
72409;BME280;60402;48.082;11.628;2024-01-25T13:24:00;96461.16;;;9.81;72.88
72409;BME280;60402;48.082;11.628;2024-01-25T13:26:46;96453.13;;;9.76;72.11
72409;BME280;60402;48.082;11.628;2024-01-25T13:29:32;96470.84;;;9.80;72.63
72409;BME280;60402;48.082;11.628;2024-01-25T13:32:17;96463.16;;;9.84;74.43
72409;BME280;60402;48.082;11.628;2024-01-25T13:35:03;96470.97;;;10.11;73.68
72409;BME280;60402;48.082;11.628;2024-01-25T13:37:49;96468.25;;;10.00;73.69
72409;BME280;60402;48.082;11.628;2024-01-25T13:40:35;96448.50;;;9.96;72.98
72409;BME280;60402;48.082;11.628;2024-01-25T13:43:21;96469.84;;;10.01;74.37
72409;BME280;60402;48.082;11.628;2024-01-25T13:46:06;96467.81;;;10.02;75.75
72409;BME280;60402;48.082;11.628;2024-01-25T13:48:52;96466.19;;;10.08;74.82
72409;BME280;60402;48.082;11.628;2024-01-25T13:51:38;96457.75;;;10.01;74.77
72409;BME280;60402;48.082;11.628;2024-01-25T13:54:23;96449.72;;;9.95;73.77
72409;BME280;60402;48.082;11.628;2024-01-25T13:57:09;96427.88;;;9.58;75.71
72409;BME280;60402;48.082;11.628;2024-01-25T13:59:55;96438.66;;;9.70;76.49
72409;BME280;60402;48.082;11.628;2024-01-25T14:02:40;96417.78;;;9.61;75.72
72409;BME280;60402;48.082;11.628;2024-01-25T14:05:30;96424.56;;;9.70;75.45
72409;BME280;60402;48.082;11.628;2024-01-25T14:08:16;96424.19;;;9.65;76.31
72409;BME280;60402;48.082;11.628;2024-01-25T14:11:03;96429.72;;;9.79;74.41
72409;BME280;60402;48.082;11.628;2024-01-25T14:13:48;96436.97;;;9.80;75.13
72409;BME280;60402;48.082;11.628;2024-01-25T14:16:34;96428.53;;;9.77;74.97
72409;BME280;60402;48.082;11.628;2024-01-25T14:19:20;96433.78;;;9.75;75.29
72409;BME280;60402;48.082;11.628;2024-01-25T14:22:06;96424.03;;;9.83;75.58
72409;BME280;60402;48.082;11.628;2024-01-25T14:24:51;96432.50;;;9.83;75.40
72409;BME280;60402;48.082;11.628;2024-01-25T14:27:37;96404.13;;;9.56;75.14
72409;BME280;60402;48.082;11.628;2024-01-25T14:30:23;96429.47;;;9.59;75.46